sensor_id;sensor_type;location;lat;lon;timestamp;P1;durP1;ratioP1;P2;durP2;ratioP2
9461;SDS011;4769;42.660;23.262;2023-04-25T00:00:32;3.90;;;3.60;;
9461;SDS011;4769;42.660;23.262;2023-04-25T00:02:57;4.60;;;3.93;;
9461;SDS011;4769;42.660;23.262;2023-04-25T00:05:26;4.73;;;3.90;;
9461;SDS011;4769;42.660;23.262;2023-04-25T00:07:52;7.80;;;4.60;;
9461;SDS011;4769;42.660;23.262;2023-04-25T00:10:18;6.30;;;4.17;;
9461;SDS011;4769;42.660;23.262;2023-04-25T00:12:44;6.63;;;4.27;;
9461;SDS011;4769;42.660;23.262;2023-04-25T00:15:10;4.20;;;2.70;;
9461;SDS011;4769;42.660;23.262;2023-04-25T00:17:36;6.70;;;4.07;;
9461;SDS011;4769;42.660;23.262;2023-04-25T00:20:02;6.13;;;4.13;;
9461;SDS011;4769;42.660;23.262;2023-04-25T00:22:31;4.87;;;3.20;;
9461;SDS011;4769;42.660;23.262;2023-04-25T00:24:56;2.87;;;2.57;;
9461;SDS011;4769;42.660;23.262;2023-04-25T00:27:22;3.77;;;2.97;;
9461;SDS011;4769;42.660;23.262;2023-04-25T00:29:48;4.47;;;3.10;;
9461;SDS011;4769;42.660;23.262;2023-04-25T00:32:13;3.47;;;2.97;;
9461;SDS011;4769;42.660;23.262;2023-04-25T00:34:39;4.15;;;3.35;;
9461;SDS011;4769;42.660;23.262;2023-04-25T00:37:05;3.10;;;2.90;;
9461;SDS011;4769;42.660;23.262;2023-04-25T00:39:33;4.37;;;3.73;;
9461;SDS011;4769;42.660;23.262;2023-04-25T00:41:59;3.53;;;3.23;;
9461;SDS011;4769;42.660;23.262;2023-04-25T00:44:25;3.83;;;3.43;;
9461;SDS011;4769;42.660;23.262;2023-04-25T00:46:52;4.30;;;3.90;;
9461;SDS011;4769;42.660;23.262;2023-04-25T00:49:19;4.27;;;3.47;;
9461;SDS011;4769;42.660;23.262;2023-04-25T00:51:45;6.27;;;3.77;;
9461;SDS011;4769;42.660;23.262;2023-04-25T00:54:10;3.20;;;2.90;;
9461;SDS011;4769;42.660;23.262;2023-04-25T00:56:39;2.97;;;2.73;;
9461;SDS011;4769;42.660;23.262;2023-04-25T00:59:05;3.87;;;2.80;;
9461;SDS011;4769;42.660;23.262;2023-04-25T01:01:31;3.27;;;2.60;;
9461;SDS011;4769;42.660;23.262;2023-04-25T01:03:58;3.10;;;2.80;;
9461;SDS011;4769;42.660;23.262;2023-04-25T01:06:24;3.23;;;2.80;;
9461;SDS011;4769;42.660;23.262;2023-04-25T01:08:50;3.37;;;3.07;;
9461;SDS011;4769;42.660;23.262;2023-04-25T01:11:16;4.13;;;2.83;;
9461;SDS011;4769;42.660;23.262;2023-04-25T01:13:45;4.00;;;3.60;;
9461;SDS011;4769;42.660;23.262;2023-04-25T01:16:11;5.80;;;3.50;;
9461;SDS011;4769;42.660;23.262;2023-04-25T01:18:36;4.37;;;3.97;;
9461;SDS011;4769;42.660;23.262;2023-04-25T01:21:09;4.70;;;4.30;;
9461;SDS011;4769;42.660;23.262;2023-04-25T01:23:35;5.97;;;5.47;;
9461;SDS011;4769;42.660;23.262;2023-04-25T01:26:02;7.13;;;5.80;;
9461;SDS011;4769;42.660;23.262;2023-04-25T01:28:28;5.70;;;5.23;;
9461;SDS011;4769;42.660;23.262;2023-04-25T01:30:54;7.10;;;5.65;;
9461;SDS011;4769;42.660;23.262;2023-04-25T01:33:21;6.35;;;5.65;;
9461;SDS011;4769;42.660;23.262;2023-04-25T01:35:47;7.22;;;6.53;;
9461;SDS011;4769;42.660;23.262;2023-04-25T01:38:15;8.03;;;5.73;;
9461;SDS011;4769;42.660;23.262;2023-04-25T01:40:41;7.27;;;6.07;;
9461;SDS011;4769;42.660;23.262;2023-04-25T01:43:09;7.57;;;6.57;;
9461;SDS011;4769;42.660;23.262;2023-04-25T01:45:35;6.80;;;6.00;;
9461;SDS011;4769;42.660;23.262;2023-04-25T01:48:02;6.93;;;6.10;;
9461;SDS011;4769;42.660;23.262;2023-04-25T01:50:28;7.70;;;7.00;;
9461;SDS011;4769;42.660;23.262;2023-04-25T01:52:54;7.43;;;6.43;;
9461;SDS011;4769;42.660;23.262;2023-04-25T01:55:23;7.43;;;6.77;;
9461;SDS011;4769;42.660;23.262;2023-04-25T01:57:48;8.50;;;7.67;;
9461;SDS011;4769;42.660;23.262;2023-04-25T02:00:14;10.23;;;9.23;;
9461;SDS011;4769;42.660;23.262;2023-04-25T02:02:40;9.80;;;8.77;;
9461;SDS011;4769;42.660;23.262;2023-04-25T02:05:07;7.90;;;7.20;;
9461;SDS011;4769;42.660;23.262;2023-04-25T02:07:32;8.20;;;7.40;;
9461;SDS011;4769;42.660;23.262;2023-04-25T02:09:58;7.93;;;7.23;;
9461;SDS011;4769;42.660;23.262;2023-04-25T02:12:27;8.13;;;7.33;;
9461;SDS011;4769;42.660;23.262;2023-04-25T02:14:53;8.50;;;7.80;;
9461;SDS011;4769;42.660;23.262;2023-04-25T02:17:18;8.77;;;7.87;;
9461;SDS011;4769;42.660;23.262;2023-04-25T02:19:44;8.80;;;7.80;;
9461;SDS011;4769;42.660;23.262;2023-04-25T02:22:10;9.40;;;8.13;;
9461;SDS011;4769;42.660;23.262;2023-04-25T02:24:35;9.37;;;8.47;;
9461;SDS011;4769;42.660;23.262;2023-04-25T02:27:01;9.60;;;8.60;;
9461;SDS011;4769;42.660;23.262;2023-04-25T02:29:30;8.97;;;8.17;;
9461;SDS011;4769;42.660;23.262;2023-04-25T02:31:55;9.70;;;8.80;;
9461;SDS011;4769;42.660;23.262;2023-04-25T02:34:21;11.05;;;9.38;;
9461;SDS011;4769;42.660;23.262;2023-04-25T02:36:47;9.90;;;9.00;;
9461;SDS011;4769;42.660;23.262;2023-04-25T02:39:13;10.75;;;9.65;;
9461;SDS011;4769;42.660;23.262;2023-04-25T02:41:39;10.43;;;9.43;;
9461;SDS011;4769;42.660;23.262;2023-04-25T02:44:04;9.88;;;8.90;;
9461;SDS011;4769;42.660;23.262;2023-04-25T02:46:33;9.70;;;8.80;;
9461;SDS011;4769;42.660;23.262;2023-04-25T02:48:58;9.43;;;8.63;;
9461;SDS011;4769;42.660;23.262;2023-04-25T02:51:24;9.95;;;8.23;;
9461;SDS011;4769;42.660;23.262;2023-04-25T02:53:50;9.40;;;8.50;;
9461;SDS011;4769;42.660;23.262;2023-04-25T02:56:15;10.10;;;9.10;;
9461;SDS011;4769;42.660;23.262;2023-04-25T02:58:41;10.40;;;9.40;;
9461;SDS011;4769;42.660;23.262;2023-04-25T03:01:07;10.80;;;9.73;;
9461;SDS011;4769;42.660;23.262;2023-04-25T03:03:35;10.80;;;9.63;;
9461;SDS011;4769;42.660;23.262;2023-04-25T03:06:01;10.33;;;9.43;;
9461;SDS011;4769;42.660;23.262;2023-04-25T03:08:26;10.63;;;9.63;;
9461;SDS011;4769;42.660;23.262;2023-04-25T03:10:52;10.67;;;9.77;;
9461;SDS011;4769;42.660;23.262;2023-04-25T03:13:18;10.27;;;9.27;;
9461;SDS011;4769;42.660;23.262;2023-04-25T03:15:44;11.80;;;9.90;;
9461;SDS011;4769;42.660;23.262;2023-04-25T03:18:10;11.87;;;10.60;;
9461;SDS011;4769;42.660;23.262;2023-04-25T03:20:38;12.73;;;10.70;;
9461;SDS011;4769;42.660;23.262;2023-04-25T03:23:04;11.23;;;10.13;;
9461;SDS011;4769;42.660;23.262;2023-04-25T03:25:29;11.70;;;10.50;;
9461;SDS011;4769;42.660;23.262;2023-04-25T03:27:55;11.03;;;10.10;;
9461;SDS011;4769;42.660;23.262;2023-04-25T03:30:21;12.40;;;11.13;;
9461;SDS011;4769;42.660;23.262;2023-04-25T03:32:46;12.10;;;11.00;;
9461;SDS011;4769;42.660;23.262;2023-04-25T03:35:12;12.90;;;11.60;;
9461;SDS011;4769;42.660;23.262;2023-04-25T03:37:40;12.53;;;11.23;;
9461;SDS011;4769;42.660;23.262;2023-04-25T03:40:07;12.80;;;11.50;;
9461;SDS011;4769;42.660;23.262;2023-04-25T03:42:33;12.73;;;11.53;;
9461;SDS011;4769;42.660;23.262;2023-04-25T03:44:59;12.73;;;11.52;;
9461;SDS011;4769;42.660;23.262;2023-04-25T03:47:24;12.47;;;11.20;;
9461;SDS011;4769;42.660;23.262;2023-04-25T03:49:50;13.43;;;12.10;;
9461;SDS011;4769;42.660;23.262;2023-04-25T03:52:16;13.30;;;12.03;;
9461;SDS011;4769;42.660;23.262;2023-04-25T03:54:44;13.90;;;12.60;;
9461;SDS011;4769;42.660;23.262;2023-04-25T03:57:10;13.50;;;12.10;;
9461;SDS011;4769;42.660;23.262;2023-04-25T03:59:36;12.77;;;11.63;;
9461;SDS011;4769;42.660;23.262;2023-04-25T04:02:01;12.50;;;11.20;;
9461;SDS011;4769;42.660;23.262;2023-04-25T04:04:27;11.40;;;10.30;;
9461;SDS011;4769;42.660;23.262;2023-04-25T04:06:53;11.00;;;10.00;;
9461;SDS011;4769;42.660;23.262;2023-04-25T04:09:18;10.85;;;9.85;;
9461;SDS011;4769;42.660;23.262;2023-04-25T04:11:47;10.10;;;9.20;;
9461;SDS011;4769;42.660;23.262;2023-04-25T04:14:12;11.43;;;9.90;;
9461;SDS011;4769;42.660;23.262;2023-04-25T04:16:38;11.77;;;10.67;;
9461;SDS011;4769;42.660;23.262;2023-04-25T04:19:04;12.35;;;11.25;;
9461;SDS011;4769;42.660;23.262;2023-04-25T04:21:30;15.43;;;11.20;;
9461;SDS011;4769;42.660;23.262;2023-04-25T04:23:56;12.18;;;11.00;;
9461;SDS011;4769;42.660;23.262;2023-04-25T04:26:21;11.07;;;10.07;;
9461;SDS011;4769;42.660;23.262;2023-04-25T04:28:50;10.80;;;9.80;;
9461;SDS011;4769;42.660;23.262;2023-04-25T04:31:15;10.93;;;9.93;;
9461;SDS011;4769;42.660;23.262;2023-04-25T04:33:41;11.55;;;10.45;;
9461;SDS011;4769;42.660;23.262;2023-04-25T04:36:07;12.70;;;11.40;;
9461;SDS011;4769;42.660;23.262;2023-04-25T04:38:33;11.48;;;10.48;;
9461;SDS011;4769;42.660;23.262;2023-04-25T04:40:58;11.83;;;10.70;;
9461;SDS011;4769;42.660;23.262;2023-04-25T04:43:24;12.17;;;10.97;;
9461;SDS011;4769;42.660;23.262;2023-04-25T04:45:52;10.90;;;9.98;;
9461;SDS011;4769;42.660;23.262;2023-04-25T04:48:18;11.30;;;10.10;;
9461;SDS011;4769;42.660;23.262;2023-04-25T04:50:44;12.25;;;11.02;;
9461;SDS011;4769;42.660;23.262;2023-04-25T04:53:09;11.27;;;10.27;;
9461;SDS011;4769;42.660;23.262;2023-04-25T04:55:35;9.98;;;8.98;;
9461;SDS011;4769;42.660;23.262;2023-04-25T04:58:01;10.37;;;9.40;;
9461;SDS011;4769;42.660;23.262;2023-04-25T05:00:26;9.43;;;8.53;;
9461;SDS011;4769;42.660;23.262;2023-04-25T05:02:55;9.27;;;8.27;;
9461;SDS011;4769;42.660;23.262;2023-04-25T05:05:21;8.88;;;8.07;;
9461;SDS011;4769;42.660;23.262;2023-04-25T05:07:47;9.80;;;8.80;;
9461;SDS011;4769;42.660;23.262;2023-04-25T05:10:12;9.77;;;8.82;;
9461;SDS011;4769;42.660;23.262;2023-04-25T05:12:38;10.17;;;8.80;;
9461;SDS011;4769;42.660;23.262;2023-04-25T05:15:04;9.13;;;8.35;;
9461;SDS011;4769;42.660;23.262;2023-04-25T05:17:31;11.85;;;10.85;;
9461;SDS011;4769;42.660;23.262;2023-04-25T05:19:59;11.90;;;10.82;;
9461;SDS011;4769;42.660;23.262;2023-04-25T05:22:25;13.60;;;11.38;;
9461;SDS011;4769;42.660;23.262;2023-04-25T05:24:51;10.90;;;9.88;;
9461;SDS011;4769;42.660;23.262;2023-04-25T05:27:17;9.40;;;8.60;;
9461;SDS011;4769;42.660;23.262;2023-04-25T05:29:43;10.02;;;9.13;;
9461;SDS011;4769;42.660;23.262;2023-04-25T05:32:09;10.60;;;9.60;;
9461;SDS011;4769;42.660;23.262;2023-04-25T05:34:34;10.88;;;9.77;;
9461;SDS011;4769;42.660;23.262;2023-04-25T05:37:03;11.02;;;9.93;;
9461;SDS011;4769;42.660;23.262;2023-04-25T05:39:28;15.60;;;13.95;;
9461;SDS011;4769;42.660;23.262;2023-04-25T05:41:54;13.50;;;10.30;;
9461;SDS011;4769;42.660;23.262;2023-04-25T05:44:20;12.98;;;11.52;;
9461;SDS011;4769;42.660;23.262;2023-04-25T05:46:46;11.95;;;10.65;;
9461;SDS011;4769;42.660;23.262;2023-04-25T05:49:11;11.52;;;10.48;;
9461;SDS011;4769;42.660;23.262;2023-04-25T05:51:37;11.23;;;9.40;;
9461;SDS011;4769;42.660;23.262;2023-04-25T05:54:08;10.07;;;9.18;;
9461;SDS011;4769;42.660;23.262;2023-04-25T05:56:33;10.27;;;9.38;;
9461;SDS011;4769;42.660;23.262;2023-04-25T05:58:59;14.45;;;11.27;;
9461;SDS011;4769;42.660;23.262;2023-04-25T06:01:24;10.70;;;9.70;;
9461;SDS011;4769;42.660;23.262;2023-04-25T06:03:50;12.02;;;10.77;;
9461;SDS011;4769;42.660;23.262;2023-04-25T06:06:16;13.50;;;12.05;;
9461;SDS011;4769;42.660;23.262;2023-04-25T06:08:42;17.05;;;15.35;;
9461;SDS011;4769;42.660;23.262;2023-04-25T06:11:10;20.42;;;18.33;;
9461;SDS011;4769;42.660;23.262;2023-04-25T06:13:36;18.80;;;14.00;;
9461;SDS011;4769;42.660;23.262;2023-04-25T06:16:01;15.50;;;13.75;;
9461;SDS011;4769;42.660;23.262;2023-04-25T06:18:27;14.48;;;12.65;;
9461;SDS011;4769;42.660;23.262;2023-04-25T06:20:53;11.88;;;10.77;;
9461;SDS011;4769;42.660;23.262;2023-04-25T06:23:18;12.57;;;11.38;;
9461;SDS011;4769;42.660;23.262;2023-04-25T06:25:44;12.43;;;11.32;;
9461;SDS011;4769;42.660;23.262;2023-04-25T06:28:12;13.20;;;12.00;;
9461;SDS011;4769;42.660;23.262;2023-04-25T06:30:38;14.30;;;12.80;;
9461;SDS011;4769;42.660;23.262;2023-04-25T06:33:04;13.65;;;12.35;;
9461;SDS011;4769;42.660;23.262;2023-04-25T06:35:30;13.18;;;11.88;;
9461;SDS011;4769;42.660;23.262;2023-04-25T06:37:55;12.35;;;11.23;;
9461;SDS011;4769;42.660;23.262;2023-04-25T06:40:21;13.00;;;11.70;;
9461;SDS011;4769;42.660;23.262;2023-04-25T06:42:47;14.43;;;12.88;;
9461;SDS011;4769;42.660;23.262;2023-04-25T06:45:15;16.00;;;11.73;;
9461;SDS011;4769;42.660;23.262;2023-04-25T06:47:41;15.60;;;10.63;;
9461;SDS011;4769;42.660;23.262;2023-04-25T06:50:07;17.35;;;10.75;;
9461;SDS011;4769;42.660;23.262;2023-04-25T06:52:33;13.93;;;9.50;;
9461;SDS011;4769;42.660;23.262;2023-04-25T06:54:59;12.95;;;9.10;;
9461;SDS011;4769;42.660;23.262;2023-04-25T06:57:25;17.02;;;10.27;;
9461;SDS011;4769;42.660;23.262;2023-04-25T06:59:50;11.82;;;10.13;;
9461;SDS011;4769;42.660;23.262;2023-04-25T07:02:19;10.90;;;9.80;;
9461;SDS011;4769;42.660;23.262;2023-04-25T07:04:44;11.45;;;10.18;;
9461;SDS011;4769;42.660;23.262;2023-04-25T07:07:10;12.43;;;10.57;;
9461;SDS011;4769;42.660;23.262;2023-04-25T07:09:36;11.48;;;10.48;;
9461;SDS011;4769;42.660;23.262;2023-04-25T07:12:01;13.90;;;12.02;;
9461;SDS011;4769;42.660;23.262;2023-04-25T07:14:27;17.40;;;14.07;;
9461;SDS011;4769;42.660;23.262;2023-04-25T07:16:53;20.08;;;17.45;;
9461;SDS011;4769;42.660;23.262;2023-04-25T07:19:21;25.58;;;13.10;;
9461;SDS011;4769;42.660;23.262;2023-04-25T07:21:47;23.15;;;13.65;;
9461;SDS011;4769;42.660;23.262;2023-04-25T07:24:13;19.48;;;11.95;;
9461;SDS011;4769;42.660;23.262;2023-04-25T07:26:39;18.05;;;11.05;;
9461;SDS011;4769;42.660;23.262;2023-04-25T07:29:04;15.20;;;10.68;;
9461;SDS011;4769;42.660;23.262;2023-04-25T07:31:30;19.90;;;11.40;;
9461;SDS011;4769;42.660;23.262;2023-04-25T07:33:56;18.27;;;10.82;;
9461;SDS011;4769;42.660;23.262;2023-04-25T07:36:24;12.65;;;10.40;;
9461;SDS011;4769;42.660;23.262;2023-04-25T07:38:50;11.55;;;9.68;;
9461;SDS011;4769;42.660;23.262;2023-04-25T07:41:16;21.40;;;10.27;;
9461;SDS011;4769;42.660;23.262;2023-04-25T07:43:41;16.90;;;9.77;;
9461;SDS011;4769;42.660;23.262;2023-04-25T07:46:07;16.88;;;10.18;;
9461;SDS011;4769;42.660;23.262;2023-04-25T07:48:33;15.05;;;9.07;;
9461;SDS011;4769;42.660;23.262;2023-04-25T07:50:58;10.98;;;8.50;;
9461;SDS011;4769;42.660;23.262;2023-04-25T07:53:27;17.42;;;8.43;;
9461;SDS011;4769;42.660;23.262;2023-04-25T07:55:52;13.30;;;9.15;;
9461;SDS011;4769;42.660;23.262;2023-04-25T07:58:18;17.30;;;9.60;;
9461;SDS011;4769;42.660;23.262;2023-04-25T08:00:44;12.65;;;9.00;;
9461;SDS011;4769;42.660;23.262;2023-04-25T08:03:10;10.15;;;6.25;;
9461;SDS011;4769;42.660;23.262;2023-04-25T08:05:35;8.25;;;4.97;;
9461;SDS011;4769;42.660;23.262;2023-04-25T08:08:01;3.55;;;2.45;;
9461;SDS011;4769;42.660;23.262;2023-04-25T08:10:29;3.45;;;2.70;;
9461;SDS011;4769;42.660;23.262;2023-04-25T08:12:55;3.22;;;2.75;;
9461;SDS011;4769;42.660;23.262;2023-04-25T08:15:21;2.45;;;2.25;;
9461;SDS011;4769;42.660;23.262;2023-04-25T08:17:46;2.75;;;2.55;;
9461;SDS011;4769;42.660;23.262;2023-04-25T08:20:12;3.10;;;2.30;;
9461;SDS011;4769;42.660;23.262;2023-04-25T08:22:38;9.95;;;2.85;;
9461;SDS011;4769;42.660;23.262;2023-04-25T08:25:04;6.05;;;2.85;;
9461;SDS011;4769;42.660;23.262;2023-04-25T08:27:33;5.32;;;2.35;;
9461;SDS011;4769;42.660;23.262;2023-04-25T08:29:59;3.28;;;2.47;;
9461;SDS011;4769;42.660;23.262;2023-04-25T08:32:24;3.20;;;2.90;;
9461;SDS011;4769;42.660;23.262;2023-04-25T08:34:50;3.13;;;2.47;;
9461;SDS011;4769;42.660;23.262;2023-04-25T08:37:16;3.00;;;2.70;;
9461;SDS011;4769;42.660;23.262;2023-04-25T08:39:41;4.43;;;3.35;;
9461;SDS011;4769;42.660;23.262;2023-04-25T08:42:07;6.65;;;4.72;;
9461;SDS011;4769;42.660;23.262;2023-04-25T08:44:35;3.10;;;2.80;;
9461;SDS011;4769;42.660;23.262;2023-04-25T08:47:02;2.83;;;2.58;;
9461;SDS011;4769;42.660;23.262;2023-04-25T08:49:28;3.72;;;2.25;;
9461;SDS011;4769;42.660;23.262;2023-04-25T08:51:55;3.58;;;2.10;;
9461;SDS011;4769;42.660;23.262;2023-04-25T08:54:25;3.65;;;2.13;;
9461;SDS011;4769;42.660;23.262;2023-04-25T08:56:54;3.38;;;2.00;;
9461;SDS011;4769;42.660;23.262;2023-04-25T08:59:21;2.92;;;2.10;;
9461;SDS011;4769;42.660;23.262;2023-04-25T09:01:51;2.78;;;2.15;;
9461;SDS011;4769;42.660;23.262;2023-04-25T09:04:19;2.58;;;1.73;;
9461;SDS011;4769;42.660;23.262;2023-04-25T09:06:46;2.60;;;2.40;;
9461;SDS011;4769;42.660;23.262;2023-04-25T09:09:11;3.83;;;2.22;;
9461;SDS011;4769;42.660;23.262;2023-04-25T09:11:37;2.85;;;2.20;;
9461;SDS011;4769;42.660;23.262;2023-04-25T09:14:13;4.40;;;1.95;;
9461;SDS011;4769;42.660;23.262;2023-04-25T09:19:27;4.60;;;1.85;;
9461;SDS011;4769;42.660;23.262;2023-04-25T09:21:53;2.85;;;1.48;;
9461;SDS011;4769;42.660;23.262;2023-04-25T09:24:26;4.63;;;2.03;;
9461;SDS011;4769;42.660;23.262;2023-04-25T09:26:55;3.22;;;1.90;;
9461;SDS011;4769;42.660;23.262;2023-04-25T09:29:24;1.95;;;1.60;;
9461;SDS011;4769;42.660;23.262;2023-04-25T09:31:55;5.60;;;1.88;;
9461;SDS011;4769;42.660;23.262;2023-04-25T09:34:40;1.80;;;1.50;;
9461;SDS011;4769;42.660;23.262;2023-04-25T09:37:06;1.48;;;1.38;;
9461;SDS011;4769;42.660;23.262;2023-04-25T09:39:32;4.18;;;1.30;;
9461;SDS011;4769;42.660;23.262;2023-04-25T09:41:58;4.63;;;1.92;;
9461;SDS011;4769;42.660;23.262;2023-04-25T09:44:24;4.00;;;1.95;;
9461;SDS011;4769;42.660;23.262;2023-04-25T09:46:50;2.00;;;1.50;;
9461;SDS011;4769;42.660;23.262;2023-04-25T09:49:19;4.47;;;1.67;;
9461;SDS011;4769;42.660;23.262;2023-04-25T09:51:53;2.50;;;1.58;;
9461;SDS011;4769;42.660;23.262;2023-04-25T09:54:19;1.92;;;1.50;;
9461;SDS011;4769;42.660;23.262;2023-04-25T09:56:45;3.35;;;1.10;;
9461;SDS011;4769;42.660;23.262;2023-04-25T09:59:13;1.23;;;1.13;;
9461;SDS011;4769;42.660;23.262;2023-04-25T10:01:40;0.80;;;0.80;;
9461;SDS011;4769;42.660;23.262;2023-04-25T10:04:08;1.58;;;1.27;;
9461;SDS011;4769;42.660;23.262;2023-04-25T10:06:38;2.05;;;1.35;;
9461;SDS011;4769;42.660;23.262;2023-04-25T10:09:06;2.30;;;1.40;;
9461;SDS011;4769;42.660;23.262;2023-04-25T10:11:32;3.63;;;1.05;;
9461;SDS011;4769;42.660;23.262;2023-04-25T10:13:58;3.22;;;1.60;;
9461;SDS011;4769;42.660;23.262;2023-04-25T10:16:25;1.67;;;1.05;;
9461;SDS011;4769;42.660;23.262;2023-04-25T10:18:51;2.60;;;1.40;;
9461;SDS011;4769;42.660;23.262;2023-04-25T10:21:17;4.72;;;1.70;;
9461;SDS011;4769;42.660;23.262;2023-04-25T10:23:47;8.20;;;2.25;;
9461;SDS011;4769;42.660;23.262;2023-04-25T10:26:13;3.45;;;1.88;;
9461;SDS011;4769;42.660;23.262;2023-04-25T10:28:55;4.03;;;1.50;;
9461;SDS011;4769;42.660;23.262;2023-04-25T10:31:21;6.07;;;2.25;;
9461;SDS011;4769;42.660;23.262;2023-04-25T10:33:47;4.55;;;2.40;;
9461;SDS011;4769;42.660;23.262;2023-04-25T10:36:14;2.45;;;2.22;;
9461;SDS011;4769;42.660;23.262;2023-04-25T10:38:42;3.50;;;1.90;;
9461;SDS011;4769;42.660;23.262;2023-04-25T10:41:12;3.75;;;2.25;;
9461;SDS011;4769;42.660;23.262;2023-04-25T10:43:38;2.80;;;1.98;;
9461;SDS011;4769;42.660;23.262;2023-04-25T10:46:18;3.25;;;1.38;;
9461;SDS011;4769;42.660;23.262;2023-04-25T10:48:45;1.38;;;1.10;;
9461;SDS011;4769;42.660;23.262;2023-04-25T10:51:15;1.23;;;1.13;;
9461;SDS011;4769;42.660;23.262;2023-04-25T10:53:43;2.95;;;0.77;;
9461;SDS011;4769;42.660;23.262;2023-04-25T10:56:12;2.38;;;0.85;;
9461;SDS011;4769;42.660;23.262;2023-04-25T10:58:45;1.20;;;0.80;;
9461;SDS011;4769;42.660;23.262;2023-04-25T11:01:12;1.25;;;0.90;;
9461;SDS011;4769;42.660;23.262;2023-04-25T11:03:39;1.33;;;1.00;;
9461;SDS011;4769;42.660;23.262;2023-04-25T11:06:06;0.73;;;0.73;;
9461;SDS011;4769;42.660;23.262;2023-04-25T11:08:47;0.88;;;0.82;;
9461;SDS011;4769;42.660;23.262;2023-04-25T11:11:16;5.43;;;1.42;;
9461;SDS011;4769;42.660;23.262;2023-04-25T11:13:43;2.38;;;1.42;;
9461;SDS011;4769;42.660;23.262;2023-04-25T11:16:08;3.50;;;1.20;;
9461;SDS011;4769;42.660;23.262;2023-04-25T11:18:34;2.10;;;1.17;;
9461;SDS011;4769;42.660;23.262;2023-04-25T11:21:00;1.35;;;1.25;;
9461;SDS011;4769;42.660;23.262;2023-04-25T11:23:27;9.48;;;2.30;;
9461;SDS011;4769;42.660;23.262;2023-04-25T11:25:54;1.85;;;1.33;;
9461;SDS011;4769;42.660;23.262;2023-04-25T11:28:23;11.30;;;2.55;;
9461;SDS011;4769;42.660;23.262;2023-04-25T11:30:49;2.60;;;1.40;;
9461;SDS011;4769;42.660;23.262;2023-04-25T11:33:14;1.52;;;1.20;;
9461;SDS011;4769;42.660;23.262;2023-04-25T11:35:40;3.97;;;1.02;;
9461;SDS011;4769;42.660;23.262;2023-04-25T11:38:06;2.78;;;1.50;;
9461;SDS011;4769;42.660;23.262;2023-04-25T11:40:32;1.75;;;1.30;;
9461;SDS011;4769;42.660;23.262;2023-04-25T11:42:59;1.20;;;1.10;;
9461;SDS011;4769;42.660;23.262;2023-04-25T11:45:29;2.35;;;1.40;;
9461;SDS011;4769;42.660;23.262;2023-04-25T11:47:54;1.35;;;1.10;;
9461;SDS011;4769;42.660;23.262;2023-04-25T11:50:20;2.92;;;1.40;;
9461;SDS011;4769;42.660;23.262;2023-04-25T11:52:46;1.48;;;1.38;;
9461;SDS011;4769;42.660;23.262;2023-04-25T11:55:13;2.67;;;1.30;;
9461;SDS011;4769;42.660;23.262;2023-04-25T11:57:40;1.98;;;1.55;;
9461;SDS011;4769;42.660;23.262;2023-04-25T12:00:08;2.38;;;2.00;;
9461;SDS011;4769;42.660;23.262;2023-04-25T12:02:39;1.85;;;1.67;;
9461;SDS011;4769;42.660;23.262;2023-04-25T12:05:06;2.08;;;1.50;;
9461;SDS011;4769;42.660;23.262;2023-04-25T12:07:32;3.45;;;2.10;;
9461;SDS011;4769;42.660;23.262;2023-04-25T12:09:58;1.88;;;1.50;;
9461;SDS011;4769;42.660;23.262;2023-04-25T12:12:26;2.83;;;1.55;;
9461;SDS011;4769;42.660;23.262;2023-04-25T12:14:52;2.13;;;1.70;;
9461;SDS011;4769;42.660;23.262;2023-04-25T12:17:18;1.77;;;1.60;;
9461;SDS011;4769;42.660;23.262;2023-04-25T12:19:46;2.28;;;1.90;;
9461;SDS011;4769;42.660;23.262;2023-04-25T12:22:19;1.42;;;1.20;;
9461;SDS011;4769;42.660;23.262;2023-04-25T12:24:45;1.10;;;1.00;;
9461;SDS011;4769;42.660;23.262;2023-04-25T12:27:13;1.70;;;0.80;;
9461;SDS011;4769;42.660;23.262;2023-04-25T12:29:40;2.20;;;1.17;;
9461;SDS011;4769;42.660;23.262;2023-04-25T12:32:16;2.50;;;1.50;;
9461;SDS011;4769;42.660;23.262;2023-04-25T12:34:42;4.82;;;1.30;;
9461;SDS011;4769;42.660;23.262;2023-04-25T12:37:10;2.05;;;1.10;;
9461;SDS011;4769;42.660;23.262;2023-04-25T12:39:36;2.08;;;1.10;;
9461;SDS011;4769;42.660;23.262;2023-04-25T12:42:01;3.40;;;1.10;;
9461;SDS011;4769;42.660;23.262;2023-04-25T12:44:27;1.50;;;1.25;;
9461;SDS011;4769;42.660;23.262;2023-04-25T12:46:53;1.63;;;0.80;;
9461;SDS011;4769;42.660;23.262;2023-04-25T12:49:19;2.30;;;1.23;;
9461;SDS011;4769;42.660;23.262;2023-04-25T12:51:44;2.28;;;1.17;;
9461;SDS011;4769;42.660;23.262;2023-04-25T12:54:13;0.88;;;0.88;;
9461;SDS011;4769;42.660;23.262;2023-04-25T12:56:38;2.78;;;1.52;;
9461;SDS011;4769;42.660;23.262;2023-04-25T12:59:05;2.35;;;1.23;;
9461;SDS011;4769;42.660;23.262;2023-04-25T13:01:31;1.55;;;1.45;;
9461;SDS011;4769;42.660;23.262;2023-04-25T13:03:57;2.15;;;1.90;;
9461;SDS011;4769;42.660;23.262;2023-04-25T13:06:22;5.32;;;2.78;;
9461;SDS011;4769;42.660;23.262;2023-04-25T13:08:48;4.80;;;3.05;;
9461;SDS011;4769;42.660;23.262;2023-04-25T13:11:17;4.53;;;2.13;;
9461;SDS011;4769;42.660;23.262;2023-04-25T13:13:43;4.15;;;2.00;;
9461;SDS011;4769;42.660;23.262;2023-04-25T13:16:09;3.42;;;1.90;;
9461;SDS011;4769;42.660;23.262;2023-04-25T13:18:35;5.22;;;2.50;;
9461;SDS011;4769;42.660;23.262;2023-04-25T13:21:01;5.38;;;2.65;;
9461;SDS011;4769;42.660;23.262;2023-04-25T13:23:27;3.75;;;2.70;;
9461;SDS011;4769;42.660;23.262;2023-04-25T13:25:54;4.47;;;2.28;;
9461;SDS011;4769;42.660;23.262;2023-04-25T13:28:23;3.43;;;2.40;;
9461;SDS011;4769;42.660;23.262;2023-04-25T13:30:49;2.22;;;2.00;;
9461;SDS011;4769;42.660;23.262;2023-04-25T13:33:15;3.13;;;2.37;;
9461;SDS011;4769;42.660;23.262;2023-04-25T13:35:41;3.23;;;2.80;;
9461;SDS011;4769;42.660;23.262;2023-04-25T13:38:07;4.03;;;2.13;;
9461;SDS011;4769;42.660;23.262;2023-04-25T13:40:33;2.78;;;2.15;;
9461;SDS011;4769;42.660;23.262;2023-04-25T13:42:58;3.65;;;2.20;;
9461;SDS011;4769;42.660;23.262;2023-04-25T13:45:27;2.88;;;2.03;;
9461;SDS011;4769;42.660;23.262;2023-04-25T13:47:54;3.45;;;1.83;;
9461;SDS011;4769;42.660;23.262;2023-04-25T13:50:25;2.60;;;1.80;;
9461;SDS011;4769;42.660;23.262;2023-04-25T13:52:51;2.05;;;1.90;;
9461;SDS011;4769;42.660;23.262;2023-04-25T13:55:17;1.60;;;1.50;;
9461;SDS011;4769;42.660;23.262;2023-04-25T13:57:43;2.42;;;1.70;;
9461;SDS011;4769;42.660;23.262;2023-04-25T14:00:09;2.55;;;1.77;;
9461;SDS011;4769;42.660;23.262;2023-04-25T14:02:38;5.30;;;2.10;;
9461;SDS011;4769;42.660;23.262;2023-04-25T14:05:04;1.90;;;1.80;;
9461;SDS011;4769;42.660;23.262;2023-04-25T14:07:31;1.83;;;1.73;;
9461;SDS011;4769;42.660;23.262;2023-04-25T14:09:56;2.10;;;1.90;;
9461;SDS011;4769;42.660;23.262;2023-04-25T14:12:22;2.05;;;1.90;;
9461;SDS011;4769;42.660;23.262;2023-04-25T14:14:48;2.22;;;1.33;;
9461;SDS011;4769;42.660;23.262;2023-04-25T14:17:14;1.63;;;1.52;;
9461;SDS011;4769;42.660;23.262;2023-04-25T14:19:43;1.70;;;1.60;;
9461;SDS011;4769;42.660;23.262;2023-04-25T14:22:09;1.38;;;1.17;;
9461;SDS011;4769;42.660;23.262;2023-04-25T14:24:35;1.90;;;1.70;;
9461;SDS011;4769;42.660;23.262;2023-04-25T14:27:01;1.60;;;1.30;;
9461;SDS011;4769;42.660;23.262;2023-04-25T14:29:26;1.80;;;1.70;;
9461;SDS011;4769;42.660;23.262;2023-04-25T14:31:52;1.65;;;1.50;;
9461;SDS011;4769;42.660;23.262;2023-04-25T14:34:18;2.90;;;2.25;;
9461;SDS011;4769;42.660;23.262;2023-04-25T14:36:47;2.20;;;2.00;;
9461;SDS011;4769;42.660;23.262;2023-04-25T14:39:12;2.30;;;1.90;;
9461;SDS011;4769;42.660;23.262;2023-04-25T14:41:38;2.30;;;2.10;;
9461;SDS011;4769;42.660;23.262;2023-04-25T14:44:04;61.55;;;18.50;;
9461;SDS011;4769;42.660;23.262;2023-04-25T14:46:30;32.83;;;11.25;;
9461;SDS011;4769;42.660;23.262;2023-04-25T14:48:56;68.47;;;20.77;;
9461;SDS011;4769;42.660;23.262;2023-04-25T14:51:21;28.50;;;8.55;;